sensor_id;sensor_type;location;lat;lon;timestamp;temperature;humidity
19007;DHT22;9636;47.382;8.480;2024-01-11T00:00:18;1.00;99.90
19007;DHT22;9636;47.382;8.480;2024-01-11T00:02:45;1.10;99.90
19007;DHT22;9636;47.382;8.480;2024-01-11T00:05:12;1.10;99.90
19007;DHT22;9636;47.382;8.480;2024-01-11T00:07:39;1.10;99.90
19007;DHT22;9636;47.382;8.480;2024-01-11T00:10:06;1.40;99.90
19007;DHT22;9636;47.382;8.480;2024-01-11T00:12:33;1.30;99.90
19007;DHT22;9636;47.382;8.480;2024-01-11T00:14:59;1.30;99.90
19007;DHT22;9636;47.382;8.480;2024-01-11T00:17:26;1.10;99.90
19007;DHT22;9636;47.382;8.480;2024-01-11T00:19:53;1.10;99.90
19007;DHT22;9636;47.382;8.480;2024-01-11T00:22:21;1.10;99.90
19007;DHT22;9636;47.382;8.480;2024-01-11T00:24:47;1.20;99.90
19007;DHT22;9636;47.382;8.480;2024-01-11T00:27:14;1.00;99.90
19007;DHT22;9636;47.382;8.480;2024-01-11T00:29:41;1.10;99.90
19007;DHT22;9636;47.382;8.480;2024-01-11T00:32:07;1.30;99.90
19007;DHT22;9636;47.382;8.480;2024-01-11T00:34:34;1.40;99.90
19007;DHT22;9636;47.382;8.480;2024-01-11T00:37:02;1.20;99.90
19007;DHT22;9636;47.382;8.480;2024-01-11T00:39:30;1.20;99.90
19007;DHT22;9636;47.382;8.480;2024-01-11T00:41:56;1.10;99.90
19007;DHT22;9636;47.382;8.480;2024-01-11T00:44:23;1.30;99.90
19007;DHT22;9636;47.382;8.480;2024-01-11T00:46:49;1.50;99.90
19007;DHT22;9636;47.382;8.480;2024-01-11T00:49:16;1.50;99.90
19007;DHT22;9636;47.382;8.480;2024-01-11T00:51:43;1.40;99.90
19007;DHT22;9636;47.382;8.480;2024-01-11T00:54:09;1.40;99.90
19007;DHT22;9636;47.382;8.480;2024-01-11T00:56:37;1.20;99.90
19007;DHT22;9636;47.382;8.480;2024-01-11T00:59:04;0.90;99.90
19007;DHT22;9636;47.382;8.480;2024-01-11T01:01:31;1.00;99.90
19007;DHT22;9636;47.382;8.480;2024-01-11T01:03:57;0.90;99.90
19007;DHT22;9636;47.382;8.480;2024-01-11T01:06:24;1.20;99.90
19007;DHT22;9636;47.382;8.480;2024-01-11T01:08:51;1.20;99.90
19007;DHT22;9636;47.382;8.480;2024-01-11T01:11:17;1.50;99.90
19007;DHT22;9636;47.382;8.480;2024-01-11T01:13:45;1.20;99.90
19007;DHT22;9636;47.382;8.480;2024-01-11T01:16:12;1.00;99.90
19007;DHT22;9636;47.382;8.480;2024-01-11T01:18:39;1.10;99.90
19007;DHT22;9636;47.382;8.480;2024-01-11T01:21:06;1.10;99.90
19007;DHT22;9636;47.382;8.480;2024-01-11T01:23:32;0.90;99.90
19007;DHT22;9636;47.382;8.480;2024-01-11T01:25:59;0.90;99.90
19007;DHT22;9636;47.382;8.480;2024-01-11T01:28:26;0.80;99.90
19007;DHT22;9636;47.382;8.480;2024-01-11T01:30:54;0.70;99.90
19007;DHT22;9636;47.382;8.480;2024-01-11T01:33:20;0.50;99.90
19007;DHT22;9636;47.382;8.480;2024-01-11T01:35:47;0.70;99.90
19007;DHT22;9636;47.382;8.480;2024-01-11T01:38:14;0.80;99.90
19007;DHT22;9636;47.382;8.480;2024-01-11T01:40:40;0.90;99.90
19007;DHT22;9636;47.382;8.480;2024-01-11T01:43:07;0.90;99.90
19007;DHT22;9636;47.382;8.480;2024-01-11T01:45:35;0.90;99.90
19007;DHT22;9636;47.382;8.480;2024-01-11T01:48:03;0.80;99.90
19007;DHT22;9636;47.382;8.480;2024-01-11T01:50:30;0.80;99.90
19007;DHT22;9636;47.382;8.480;2024-01-11T01:52:57;0.90;99.90
19007;DHT22;9636;47.382;8.480;2024-01-11T01:55:24;0.90;99.90
19007;DHT22;9636;47.382;8.480;2024-01-11T01:57:51;0.90;99.90
19007;DHT22;9636;47.382;8.480;2024-01-11T02:00:19;0.80;99.90
19007;DHT22;9636;47.382;8.480;2024-01-11T02:02:45;0.90;99.90
19007;DHT22;9636;47.382;8.480;2024-01-11T02:05:15;0.80;99.90
19007;DHT22;9636;47.382;8.480;2024-01-11T02:07:43;0.70;99.90
19007;DHT22;9636;47.382;8.480;2024-01-11T02:10:10;0.80;99.90
19007;DHT22;9636;47.382;8.480;2024-01-11T02:12:37;0.80;99.90
19007;DHT22;9636;47.382;8.480;2024-01-11T02:15:04;0.90;99.90
19007;DHT22;9636;47.382;8.480;2024-01-11T02:17:31;0.90;99.90
19007;DHT22;9636;47.382;8.480;2024-01-11T02:19:57;0.80;99.90
19007;DHT22;9636;47.382;8.480;2024-01-11T02:22:28;0.80;99.90
19007;DHT22;9636;47.382;8.480;2024-01-11T02:24:56;0.80;99.90
19007;DHT22;9636;47.382;8.480;2024-01-11T02:27:23;0.80;99.90
19007;DHT22;9636;47.382;8.480;2024-01-11T02:29:50;0.90;99.90
19007;DHT22;9636;47.382;8.480;2024-01-11T02:32:16;0.90;99.90
19007;DHT22;9636;47.382;8.480;2024-01-11T02:34:43;0.80;99.90
19007;DHT22;9636;47.382;8.480;2024-01-11T02:37:10;0.70;99.90
19007;DHT22;9636;47.382;8.480;2024-01-11T02:39:37;0.60;99.90
19007;DHT22;9636;47.382;8.480;2024-01-11T02:42:05;0.70;99.90
19007;DHT22;9636;47.382;8.480;2024-01-11T02:44:32;0.70;99.90
19007;DHT22;9636;47.382;8.480;2024-01-11T02:46:58;0.50;99.90
19007;DHT22;9636;47.382;8.480;2024-01-11T02:49:25;0.40;99.90
19007;DHT22;9636;47.382;8.480;2024-01-11T02:51:52;0.50;99.90
19007;DHT22;9636;47.382;8.480;2024-01-11T02:54:18;0.50;99.90
19007;DHT22;9636;47.382;8.480;2024-01-11T02:56:45;0.60;99.90
19007;DHT22;9636;47.382;8.480;2024-01-11T02:59:13;0.50;99.90
19007;DHT22;9636;47.382;8.480;2024-01-11T03:01:40;0.70;99.90
19007;DHT22;9636;47.382;8.480;2024-01-11T03:04:06;0.50;99.90
19007;DHT22;9636;47.382;8.480;2024-01-11T03:06:33;0.60;99.90
19007;DHT22;9636;47.382;8.480;2024-01-11T03:08:59;0.60;99.90
19007;DHT22;9636;47.382;8.480;2024-01-11T03:11:26;0.50;99.90
19007;DHT22;9636;47.382;8.480;2024-01-11T03:13:53;0.50;99.90
19007;DHT22;9636;47.382;8.480;2024-01-11T03:16:22;0.30;99.90
19007;DHT22;9636;47.382;8.480;2024-01-11T03:18:49;0.30;99.90
19007;DHT22;9636;47.382;8.480;2024-01-11T03:21:15;0.20;99.90
19007;DHT22;9636;47.382;8.480;2024-01-11T03:23:42;0.30;99.90
19007;DHT22;9636;47.382;8.480;2024-01-11T03:26:12;0.30;99.90
19007;DHT22;9636;47.382;8.480;2024-01-11T03:31:16;0.50;99.90
19007;DHT22;9636;47.382;8.480;2024-01-11T03:33:44;0.50;99.90
19007;DHT22;9636;47.382;8.480;2024-01-11T03:36:11;0.50;99.90
19007;DHT22;9636;47.382;8.480;2024-01-11T03:38:37;0.50;99.90
19007;DHT22;9636;47.382;8.480;2024-01-11T03:41:07;0.60;99.90
19007;DHT22;9636;47.382;8.480;2024-01-11T03:43:34;0.40;99.90
19007;DHT22;9636;47.382;8.480;2024-01-11T03:46:01;0.40;99.90
19007;DHT22;9636;47.382;8.480;2024-01-11T03:48:27;0.50;99.90
19007;DHT22;9636;47.382;8.480;2024-01-11T03:50:55;0.60;99.90
19007;DHT22;9636;47.382;8.480;2024-01-11T03:53:22;0.70;99.90
19007;DHT22;9636;47.382;8.480;2024-01-11T03:55:48;0.70;99.90
19007;DHT22;9636;47.382;8.480;2024-01-11T03:58:15;0.60;99.90
19007;DHT22;9636;47.382;8.480;2024-01-11T04:00:41;0.50;99.90
19007;DHT22;9636;47.382;8.480;2024-01-11T04:03:08;0.50;99.90
19007;DHT22;9636;47.382;8.480;2024-01-11T04:05:35;0.50;99.90
19007;DHT22;9636;47.382;8.480;2024-01-11T04:08:04;0.50;99.90
19007;DHT22;9636;47.382;8.480;2024-01-11T04:10:31;0.50;99.90
19007;DHT22;9636;47.382;8.480;2024-01-11T04:12:57;0.50;99.90
19007;DHT22;9636;47.382;8.480;2024-01-11T04:15:24;0.60;99.90
19007;DHT22;9636;47.382;8.480;2024-01-11T04:17:51;0.60;99.90
19007;DHT22;9636;47.382;8.480;2024-01-11T04:20:17;0.60;99.90
19007;DHT22;9636;47.382;8.480;2024-01-11T04:22:44;0.50;99.90
19007;DHT22;9636;47.382;8.480;2024-01-11T04:25:12;0.60;99.90
19007;DHT22;9636;47.382;8.480;2024-01-11T04:27:39;0.40;99.90
19007;DHT22;9636;47.382;8.480;2024-01-11T04:30:06;0.60;99.90
19007;DHT22;9636;47.382;8.480;2024-01-11T04:32:33;0.50;99.90
19007;DHT22;9636;47.382;8.480;2024-01-11T04:35:00;0.60;99.90
19007;DHT22;9636;47.382;8.480;2024-01-11T04:37:26;0.50;99.90
19007;DHT22;9636;47.382;8.480;2024-01-11T04:39:53;0.50;99.90
19007;DHT22;9636;47.382;8.480;2024-01-11T04:42:21;0.50;99.90
19007;DHT22;9636;47.382;8.480;2024-01-11T04:44:47;0.50;99.90
19007;DHT22;9636;47.382;8.480;2024-01-11T04:47:14;0.40;99.90
19007;DHT22;9636;47.382;8.480;2024-01-11T04:49:41;0.50;99.90
19007;DHT22;9636;47.382;8.480;2024-01-11T04:52:07;0.60;99.90
19007;DHT22;9636;47.382;8.480;2024-01-11T04:54:34;0.60;99.90
19007;DHT22;9636;47.382;8.480;2024-01-11T04:57:00;0.60;99.90
19007;DHT22;9636;47.382;8.480;2024-01-11T04:59:29;0.50;99.90
19007;DHT22;9636;47.382;8.480;2024-01-11T05:01:56;0.40;99.90
19007;DHT22;9636;47.382;8.480;2024-01-11T05:04:22;0.60;99.90
19007;DHT22;9636;47.382;8.480;2024-01-11T05:06:50;0.70;99.90
19007;DHT22;9636;47.382;8.480;2024-01-11T05:09:17;0.90;99.90
19007;DHT22;9636;47.382;8.480;2024-01-11T05:11:43;0.80;99.90
19007;DHT22;9636;47.382;8.480;2024-01-11T05:14:10;0.60;99.90
19007;DHT22;9636;47.382;8.480;2024-01-11T05:16:38;0.50;99.90
19007;DHT22;9636;47.382;8.480;2024-01-11T05:19:05;0.80;99.90
19007;DHT22;9636;47.382;8.480;2024-01-11T05:21:32;0.80;99.90
19007;DHT22;9636;47.382;8.480;2024-01-11T05:23:59;0.60;99.90
19007;DHT22;9636;47.382;8.480;2024-01-11T05:26:26;0.50;99.90
19007;DHT22;9636;47.382;8.480;2024-01-11T05:28:52;0.50;99.90
19007;DHT22;9636;47.382;8.480;2024-01-11T05:31:19;0.50;99.90
19007;DHT22;9636;47.382;8.480;2024-01-11T05:33:47;0.50;99.90
19007;DHT22;9636;47.382;8.480;2024-01-11T05:36:14;0.50;99.90
19007;DHT22;9636;47.382;8.480;2024-01-11T05:38:40;0.40;99.90
19007;DHT22;9636;47.382;8.480;2024-01-11T05:41:07;0.50;99.90
19007;DHT22;9636;47.382;8.480;2024-01-11T05:43:34;0.60;99.90
19007;DHT22;9636;47.382;8.480;2024-01-11T05:46:00;0.70;99.90
19007;DHT22;9636;47.382;8.480;2024-01-11T05:48:27;0.70;99.90
19007;DHT22;9636;47.382;8.480;2024-01-11T05:50:55;0.70;99.90
19007;DHT22;9636;47.382;8.480;2024-01-11T05:53:22;0.80;99.90
19007;DHT22;9636;47.382;8.480;2024-01-11T05:55:50;0.90;99.90
19007;DHT22;9636;47.382;8.480;2024-01-11T05:58:17;0.70;99.90
19007;DHT22;9636;47.382;8.480;2024-01-11T06:00:43;0.60;99.90
19007;DHT22;9636;47.382;8.480;2024-01-11T06:03:11;0.60;99.90
19007;DHT22;9636;47.382;8.480;2024-01-11T06:05:38;0.40;99.90
19007;DHT22;9636;47.382;8.480;2024-01-11T06:08:06;0.40;99.90
19007;DHT22;9636;47.382;8.480;2024-01-11T06:10:32;0.50;99.90
19007;DHT22;9636;47.382;8.480;2024-01-11T06:12:59;0.50;99.90
19007;DHT22;9636;47.382;8.480;2024-01-11T06:15:25;0.70;99.90
19007;DHT22;9636;47.382;8.480;2024-01-11T06:17:52;0.60;99.90
19007;DHT22;9636;47.382;8.480;2024-01-11T06:20:19;0.70;99.90
19007;DHT22;9636;47.382;8.480;2024-01-11T06:22:46;0.60;99.90
19007;DHT22;9636;47.382;8.480;2024-01-11T06:25:14;0.50;99.90
19007;DHT22;9636;47.382;8.480;2024-01-11T06:27:41;0.50;99.90
19007;DHT22;9636;47.382;8.480;2024-01-11T06:30:08;0.50;99.90
19007;DHT22;9636;47.382;8.480;2024-01-11T06:32:35;0.60;99.90
19007;DHT22;9636;47.382;8.480;2024-01-11T06:35:01;0.60;99.90
19007;DHT22;9636;47.382;8.480;2024-01-11T06:37:28;0.60;99.90
19007;DHT22;9636;47.382;8.480;2024-01-11T06:39:55;0.60;99.90
19007;DHT22;9636;47.382;8.480;2024-01-11T06:42:23;0.60;99.90
19007;DHT22;9636;47.382;8.480;2024-01-11T06:44:50;0.60;99.90
19007;DHT22;9636;47.382;8.480;2024-01-11T06:47:16;0.60;99.90
19007;DHT22;9636;47.382;8.480;2024-01-11T06:49:43;0.70;99.90
19007;DHT22;9636;47.382;8.480;2024-01-11T06:52:10;0.60;99.90
19007;DHT22;9636;47.382;8.480;2024-01-11T06:54:37;0.50;99.90
19007;DHT22;9636;47.382;8.480;2024-01-11T06:57:03;0.50;99.90
19007;DHT22;9636;47.382;8.480;2024-01-11T06:59:31;0.50;99.90
19007;DHT22;9636;47.382;8.480;2024-01-11T07:01:58;0.60;99.90
19007;DHT22;9636;47.382;8.480;2024-01-11T07:04:24;0.70;99.90
19007;DHT22;9636;47.382;8.480;2024-01-11T07:06:51;0.50;99.90
19007;DHT22;9636;47.382;8.480;2024-01-11T07:09:18;0.50;99.90
19007;DHT22;9636;47.382;8.480;2024-01-11T07:11:45;0.50;99.90
19007;DHT22;9636;47.382;8.480;2024-01-11T07:14:12;0.60;99.90
19007;DHT22;9636;47.382;8.480;2024-01-11T07:16:40;0.60;99.90
19007;DHT22;9636;47.382;8.480;2024-01-11T07:19:06;0.60;99.90
19007;DHT22;9636;47.382;8.480;2024-01-11T07:21:33;0.50;99.90
19007;DHT22;9636;47.382;8.480;2024-01-11T07:23:59;0.60;99.90
19007;DHT22;9636;47.382;8.480;2024-01-11T07:26:26;0.60;99.90
19007;DHT22;9636;47.382;8.480;2024-01-11T07:28:53;0.60;99.90
19007;DHT22;9636;47.382;8.480;2024-01-11T07:31:21;0.50;99.90
19007;DHT22;9636;47.382;8.480;2024-01-11T07:33:49;0.50;99.90
19007;DHT22;9636;47.382;8.480;2024-01-11T07:36:16;0.90;99.90
19007;DHT22;9636;47.382;8.480;2024-01-11T07:38:43;0.80;99.90
19007;DHT22;9636;47.382;8.480;2024-01-11T07:41:09;0.60;99.90
19007;DHT22;9636;47.382;8.480;2024-01-11T07:43:36;0.50;99.90
19007;DHT22;9636;47.382;8.480;2024-01-11T07:46:03;0.50;99.90
19007;DHT22;9636;47.382;8.480;2024-01-11T07:48:31;0.60;99.90
19007;DHT22;9636;47.382;8.480;2024-01-11T07:50:59;0.60;99.90
19007;DHT22;9636;47.382;8.480;2024-01-11T07:53:25;0.50;99.90
19007;DHT22;9636;47.382;8.480;2024-01-11T07:55:52;0.30;99.90
19007;DHT22;9636;47.382;8.480;2024-01-11T07:58:19;0.40;99.90
19007;DHT22;9636;47.382;8.480;2024-01-11T08:00:46;0.30;99.90
19007;DHT22;9636;47.382;8.480;2024-01-11T08:03:13;0.40;99.90
19007;DHT22;9636;47.382;8.480;2024-01-11T08:05:40;0.30;99.90
19007;DHT22;9636;47.382;8.480;2024-01-11T08:08:07;0.50;99.90
19007;DHT22;9636;47.382;8.480;2024-01-11T08:10:34;0.60;99.90
19007;DHT22;9636;47.382;8.480;2024-01-11T08:13:01;0.50;99.90
19007;DHT22;9636;47.382;8.480;2024-01-11T08:15:27;0.30;99.90
19007;DHT22;9636;47.382;8.480;2024-01-11T08:17:54;0.30;99.90
19007;DHT22;9636;47.382;8.480;2024-01-11T08:20:20;0.20;99.90
19007;DHT22;9636;47.382;8.480;2024-01-11T08:22:47;0.40;99.90
19007;DHT22;9636;47.382;8.480;2024-01-11T08:25:15;0.40;99.90
19007;DHT22;9636;47.382;8.480;2024-01-11T08:27:43;0.50;99.90
19007;DHT22;9636;47.382;8.480;2024-01-11T08:30:09;0.60;99.90
19007;DHT22;9636;47.382;8.480;2024-01-11T08:32:37;0.70;99.90
19007;DHT22;9636;47.382;8.480;2024-01-11T08:35:07;0.70;99.90
19007;DHT22;9636;47.382;8.480;2024-01-11T08:37:35;0.40;99.90
19007;DHT22;9636;47.382;8.480;2024-01-11T08:40:02;0.40;99.90
19007;DHT22;9636;47.382;8.480;2024-01-11T08:42:31;0.60;99.90
19007;DHT22;9636;47.382;8.480;2024-01-11T08:44:57;0.70;99.90
19007;DHT22;9636;47.382;8.480;2024-01-11T08:47:29;0.60;99.90
19007;DHT22;9636;47.382;8.480;2024-01-11T08:49:56;0.60;99.90
19007;DHT22;9636;47.382;8.480;2024-01-11T08:52:22;0.50;99.90
19007;DHT22;9636;47.382;8.480;2024-01-11T08:54:49;0.40;99.90
19007;DHT22;9636;47.382;8.480;2024-01-11T08:57:16;0.50;99.90
19007;DHT22;9636;47.382;8.480;2024-01-11T08:59:44;0.40;99.90
19007;DHT22;9636;47.382;8.480;2024-01-11T09:02:10;0.20;99.90
19007;DHT22;9636;47.382;8.480;2024-01-11T09:04:37;0.20;99.90
19007;DHT22;9636;47.382;8.480;2024-01-11T09:07:03;0.20;99.90
19007;DHT22;9636;47.382;8.480;2024-01-11T09:09:30;0.30;99.90
19007;DHT22;9636;47.382;8.480;2024-01-11T09:11:57;0.30;99.90
19007;DHT22;9636;47.382;8.480;2024-01-11T09:14:24;0.20;99.90
19007;DHT22;9636;47.382;8.480;2024-01-11T09:16:52;0.40;99.90
19007;DHT22;9636;47.382;8.480;2024-01-11T09:19:18;0.20;99.90
19007;DHT22;9636;47.382;8.480;2024-01-11T09:21:45;0.20;99.90
19007;DHT22;9636;47.382;8.480;2024-01-11T09:24:11;0.40;99.90
19007;DHT22;9636;47.382;8.480;2024-01-11T09:26:38;0.40;99.90
19007;DHT22;9636;47.382;8.480;2024-01-11T09:29:05;0.50;99.90
19007;DHT22;9636;47.382;8.480;2024-01-11T09:31:31;0.50;99.90
19007;DHT22;9636;47.382;8.480;2024-01-11T09:33:59;0.60;99.90
19007;DHT22;9636;47.382;8.480;2024-01-11T09:36:26;0.60;99.90
19007;DHT22;9636;47.382;8.480;2024-01-11T09:38:53;0.50;99.90
19007;DHT22;9636;47.382;8.480;2024-01-11T09:41:19;0.50;99.90
19007;DHT22;9636;47.382;8.480;2024-01-11T09:43:46;0.30;99.90
19007;DHT22;9636;47.382;8.480;2024-01-11T09:46:14;0.30;99.90
19007;DHT22;9636;47.382;8.480;2024-01-11T09:48:42;0.30;99.90
19007;DHT22;9636;47.382;8.480;2024-01-11T09:51:11;0.30;99.90
19007;DHT22;9636;47.382;8.480;2024-01-11T09:53:38;0.10;99.90
19007;DHT22;9636;47.382;8.480;2024-01-11T09:56:05;0.10;99.90
19007;DHT22;9636;47.382;8.480;2024-01-11T09:58:33;0.30;99.90
19007;DHT22;9636;47.382;8.480;2024-01-11T10:01:02;0.20;99.90
19007;DHT22;9636;47.382;8.480;2024-01-11T10:03:28;0.10;99.90
19007;DHT22;9636;47.382;8.480;2024-01-11T10:05:57;-0.10;99.90
19007;DHT22;9636;47.382;8.480;2024-01-11T10:08:26;0.10;99.90
19007;DHT22;9636;47.382;8.480;2024-01-11T10:10:52;0.20;99.90
19007;DHT22;9636;47.382;8.480;2024-01-11T10:13:21;0.30;99.90
19007;DHT22;9636;47.382;8.480;2024-01-11T10:15:51;0.30;99.90
19007;DHT22;9636;47.382;8.480;2024-01-11T10:18:18;0.30;99.90
19007;DHT22;9636;47.382;8.480;2024-01-11T10:20:48;0.30;99.90
19007;DHT22;9636;47.382;8.480;2024-01-11T10:23:17;0.50;99.90
19007;DHT22;9636;47.382;8.480;2024-01-11T10:25:45;0.40;99.90
19007;DHT22;9636;47.382;8.480;2024-01-11T10:28:13;0.40;99.90
19007;DHT22;9636;47.382;8.480;2024-01-11T10:30:39;0.30;99.90
19007;DHT22;9636;47.382;8.480;2024-01-11T10:33:07;0.30;99.90
19007;DHT22;9636;47.382;8.480;2024-01-11T10:35:34;0.40;99.90
19007;DHT22;9636;47.382;8.480;2024-01-11T10:38:01;0.30;99.90
19007;DHT22;9636;47.382;8.480;2024-01-11T10:40:29;0.50;99.90
19007;DHT22;9636;47.382;8.480;2024-01-11T10:42:58;0.40;99.90
19007;DHT22;9636;47.382;8.480;2024-01-11T10:45:26;0.40;99.90
19007;DHT22;9636;47.382;8.480;2024-01-11T10:47:53;0.40;99.90
19007;DHT22;9636;47.382;8.480;2024-01-11T10:50:21;0.50;99.90
19007;DHT22;9636;47.382;8.480;2024-01-11T10:53:01;0.40;99.90
19007;DHT22;9636;47.382;8.480;2024-01-11T10:55:29;0.40;99.90
19007;DHT22;9636;47.382;8.480;2024-01-11T10:57:59;0.50;99.90
19007;DHT22;9636;47.382;8.480;2024-01-11T11:00:26;0.50;99.90
19007;DHT22;9636;47.382;8.480;2024-01-11T11:02:53;0.40;99.90
19007;DHT22;9636;47.382;8.480;2024-01-11T11:05:21;0.20;99.90
19007;DHT22;9636;47.382;8.480;2024-01-11T11:07:48;0.10;99.90
19007;DHT22;9636;47.382;8.480;2024-01-11T11:10:15;0.00;99.90
19007;DHT22;9636;47.382;8.480;2024-01-11T11:12:43;0.10;99.90
19007;DHT22;9636;47.382;8.480;2024-01-11T11:15:12;0.10;99.90
19007;DHT22;9636;47.382;8.480;2024-01-11T11:17:39;0.20;99.90
19007;DHT22;9636;47.382;8.480;2024-01-11T11:20:06;0.30;99.90
19007;DHT22;9636;47.382;8.480;2024-01-11T11:22:34;0.30;99.90
19007;DHT22;9636;47.382;8.480;2024-01-11T11:25:04;0.20;99.90
19007;DHT22;9636;47.382;8.480;2024-01-11T11:27:33;0.10;99.90
19007;DHT22;9636;47.382;8.480;2024-01-11T11:30:00;0.00;99.90
19007;DHT22;9636;47.382;8.480;2024-01-11T11:32:37;0.00;99.90
19007;DHT22;9636;47.382;8.480;2024-01-11T11:35:04;0.10;99.90
19007;DHT22;9636;47.382;8.480;2024-01-11T11:37:31;0.00;99.90
19007;DHT22;9636;47.382;8.480;2024-01-11T11:39:58;0.20;99.90
19007;DHT22;9636;47.382;8.480;2024-01-11T11:42:25;0.20;99.90
19007;DHT22;9636;47.382;8.480;2024-01-11T11:44:54;0.30;99.90
19007;DHT22;9636;47.382;8.480;2024-01-11T11:47:21;0.30;99.90
19007;DHT22;9636;47.382;8.480;2024-01-11T11:49:58;0.20;99.90
19007;DHT22;9636;47.382;8.480;2024-01-11T11:52:29;0.20;99.90
19007;DHT22;9636;47.382;8.480;2024-01-11T11:54:56;0.10;99.90
19007;DHT22;9636;47.382;8.480;2024-01-11T11:57:23;0.00;99.90
19007;DHT22;9636;47.382;8.480;2024-01-11T11:59:50;-0.10;99.90
19007;DHT22;9636;47.382;8.480;2024-01-11T12:02:17;-0.10;99.90
19007;DHT22;9636;47.382;8.480;2024-01-11T12:04:46;0.00;99.90
19007;DHT22;9636;47.382;8.480;2024-01-11T12:07:15;0.10;99.90
19007;DHT22;9636;47.382;8.480;2024-01-11T12:09:41;0.00;99.90
19007;DHT22;9636;47.382;8.480;2024-01-11T12:12:08;0.10;99.90
19007;DHT22;9636;47.382;8.480;2024-01-11T12:14:35;0.10;99.90
19007;DHT22;9636;47.382;8.480;2024-01-11T12:17:02;0.20;99.90
19007;DHT22;9636;47.382;8.480;2024-01-11T12:19:29;0.40;99.90
19007;DHT22;9636;47.382;8.480;2024-01-11T12:21:56;0.30;99.90
19007;DHT22;9636;47.382;8.480;2024-01-11T12:24:24;0.30;99.90
19007;DHT22;9636;47.382;8.480;2024-01-11T12:26:50;0.40;99.90
19007;DHT22;9636;47.382;8.480;2024-01-11T12:29:19;0.30;99.90
19007;DHT22;9636;47.382;8.480;2024-01-11T12:31:46;0.10;99.90
19007;DHT22;9636;47.382;8.480;2024-01-11T12:34:13;0.10;99.90
19007;DHT22;9636;47.382;8.480;2024-01-11T12:36:40;0.20;99.90
19007;DHT22;9636;47.382;8.480;2024-01-11T12:39:07;0.30;99.90
19007;DHT22;9636;47.382;8.480;2024-01-11T12:41:36;0.40;99.90
19007;DHT22;9636;47.382;8.480;2024-01-11T12:44:03;0.20;99.90
19007;DHT22;9636;47.382;8.480;2024-01-11T12:46:29;0.10;99.90
19007;DHT22;9636;47.382;8.480;2024-01-11T12:48:56;0.10;99.90
19007;DHT22;9636;47.382;8.480;2024-01-11T12:51:23;0.10;99.90
19007;DHT22;9636;47.382;8.480;2024-01-11T12:53:50;0.30;99.90
19007;DHT22;9636;47.382;8.480;2024-01-11T12:56:17;0.30;99.90
19007;DHT22;9636;47.382;8.480;2024-01-11T12:58:45;0.60;99.90
19007;DHT22;9636;47.382;8.480;2024-01-11T13:01:12;0.30;99.90
19007;DHT22;9636;47.382;8.480;2024-01-11T13:03:40;0.30;99.90
19007;DHT22;9636;47.382;8.480;2024-01-11T13:06:09;0.40;99.90
19007;DHT22;9636;47.382;8.480;2024-01-11T13:08:37;0.30;99.90
19007;DHT22;9636;47.382;8.480;2024-01-11T13:11:05;0.10;99.90
19007;DHT22;9636;47.382;8.480;2024-01-11T13:13:32;0.10;99.90
19007;DHT22;9636;47.382;8.480;2024-01-11T13:16:01;0.20;99.90
19007;DHT22;9636;47.382;8.480;2024-01-11T13:18:31;-0.40;99.90
19007;DHT22;9636;47.382;8.480;2024-01-11T13:20:57;-0.20;99.90
19007;DHT22;9636;47.382;8.480;2024-01-11T13:23:24;-0.10;99.90
19007;DHT22;9636;47.382;8.480;2024-01-11T13:25:51;-0.10;99.90
19007;DHT22;9636;47.382;8.480;2024-01-11T13:28:17;0.10;99.90
19007;DHT22;9636;47.382;8.480;2024-01-11T13:30:44;0.20;99.90
19007;DHT22;9636;47.382;8.480;2024-01-11T13:33:13;0.00;99.90
19007;DHT22;9636;47.382;8.480;2024-01-11T13:35:41;-0.20;99.90
19007;DHT22;9636;47.382;8.480;2024-01-11T13:38:08;0.00;99.90
19007;DHT22;9636;47.382;8.480;2024-01-11T13:40:35;-0.20;99.90
19007;DHT22;9636;47.382;8.480;2024-01-11T13:43:02;-0.20;99.90
19007;DHT22;9636;47.382;8.480;2024-01-11T13:45:29;-0.20;99.90
19007;DHT22;9636;47.382;8.480;2024-01-11T13:47:56;-0.20;99.90
19007;DHT22;9636;47.382;8.480;2024-01-11T13:50:24;0.00;99.90
19007;DHT22;9636;47.382;8.480;2024-01-11T13:52:51;-0.10;99.90
19007;DHT22;9636;47.382;8.480;2024-01-11T13:55:17;0.20;99.90
19007;DHT22;9636;47.382;8.480;2024-01-11T13:57:46;0.30;99.90
19007;DHT22;9636;47.382;8.480;2024-01-11T14:00:13;0.20;99.90
19007;DHT22;9636;47.382;8.480;2024-01-11T14:02:40;0.10;99.90
19007;DHT22;9636;47.382;8.480;2024-01-11T14:05:07;0.10;99.90
19007;DHT22;9636;47.382;8.480;2024-01-11T14:07:38;0.00;99.90
19007;DHT22;9636;47.382;8.480;2024-01-11T14:10:05;-0.30;99.90
19007;DHT22;9636;47.382;8.480;2024-01-11T14:12:33;0.00;99.90
19007;DHT22;9636;47.382;8.480;2024-01-11T14:15:01;0.10;99.90
19007;DHT22;9636;47.382;8.480;2024-01-11T14:17:28;0.00;99.90
19007;DHT22;9636;47.382;8.480;2024-01-11T14:19:54;0.00;99.90
19007;DHT22;9636;47.382;8.480;2024-01-11T14:22:21;0.10;99.90
19007;DHT22;9636;47.382;8.480;2024-01-11T14:24:49;0.10;99.90
19007;DHT22;9636;47.382;8.480;2024-01-11T14:27:16;0.30;99.90
19007;DHT22;9636;47.382;8.480;2024-01-11T14:29:42;0.20;99.90
19007;DHT22;9636;47.382;8.480;2024-01-11T14:32:09;0.20;99.90
19007;DHT22;9636;47.382;8.480;2024-01-11T14:34:36;0.10;99.90
19007;DHT22;9636;47.382;8.480;2024-01-11T14:37:04;0.10;99.90
19007;DHT22;9636;47.382;8.480;2024-01-11T14:39:30;-0.10;99.90
19007;DHT22;9636;47.382;8.480;2024-01-11T14:41:59;0.10;99.90
19007;DHT22;9636;47.382;8.480;2024-01-11T14:44:25;0.30;99.90
19007;DHT22;9636;47.382;8.480;2024-01-11T14:46:52;0.20;99.90
19007;DHT22;9636;47.382;8.480;2024-01-11T14:49:19;0.20;99.90
19007;DHT22;9636;47.382;8.480;2024-01-11T14:51:46;0.00;99.90
19007;DHT22;9636;47.382;8.480;2024-01-11T14:54:13;0.00;99.90
19007;DHT22;9636;47.382;8.480;2024-01-11T14:56:39;0.10;99.90
19007;DHT22;9636;47.382;8.480;2024-01-11T14:59:07;0.10;99.90
19007;DHT22;9636;47.382;8.480;2024-01-11T15:01:35;0.30;99.90
19007;DHT22;9636;47.382;8.480;2024-01-11T15:04:01;0.20;99.90
19007;DHT22;9636;47.382;8.480;2024-01-11T15:06:28;0.30;99.90
19007;DHT22;9636;47.382;8.480;2024-01-11T15:08:54;0.30;99.90
19007;DHT22;9636;47.382;8.480;2024-01-11T15:11:21;0.30;99.90
19007;DHT22;9636;47.382;8.480;2024-01-11T15:13:48;0.30;99.90
19007;DHT22;9636;47.382;8.480;2024-01-11T15:16:16;0.20;99.90
19007;DHT22;9636;47.382;8.480;2024-01-11T15:18:43;0.20;99.90
19007;DHT22;9636;47.382;8.480;2024-01-11T15:21:11;0.20;99.90
19007;DHT22;9636;47.382;8.480;2024-01-11T15:23:38;0.10;99.90
19007;DHT22;9636;47.382;8.480;2024-01-11T15:26:05;0.10;99.90
19007;DHT22;9636;47.382;8.480;2024-01-11T15:28:32;-0.10;99.90
19007;DHT22;9636;47.382;8.480;2024-01-11T15:30:59;-0.20;99.90
19007;DHT22;9636;47.382;8.480;2024-01-11T15:33:26;-0.10;99.90
19007;DHT22;9636;47.382;8.480;2024-01-11T15:35:53;0.00;99.90
19007;DHT22;9636;47.382;8.480;2024-01-11T15:38:20;0.00;99.90
19007;DHT22;9636;47.382;8.480;2024-01-11T15:40:46;-0.10;99.90
19007;DHT22;9636;47.382;8.480;2024-01-11T15:43:13;-0.10;99.90
19007;DHT22;9636;47.382;8.480;2024-01-11T15:45:40;-0.10;99.90
19007;DHT22;9636;47.382;8.480;2024-01-11T15:48:06;0.00;99.90
19007;DHT22;9636;47.382;8.480;2024-01-11T15:50:34;0.00;99.90
19007;DHT22;9636;47.382;8.480;2024-01-11T15:53:01;-0.10;99.90
19007;DHT22;9636;47.382;8.480;2024-01-11T15:55:27;0.10;99.90
19007;DHT22;9636;47.382;8.480;2024-01-11T15:57:54;0.10;99.90
19007;DHT22;9636;47.382;8.480;2024-01-11T16:00:24;-0.10;99.90